Clairmont, Canada
Current Conditions -  °F | °C
As of 3:07 AM on Thursday 29 Jan 2015 (Local Time) from CYQU Reporting Station
Haze Haze  
Wind Chill:   Ceiling: 400
Heat Index: 16°   Visibility: 2mi
Dew Point: 14°   Wind: 5mph
Humidity: 93%   Direction: 350°N
Pressure: 30.27"   Gusts: NA
Location:  55.24°N, 118.78°W
Report Text: CYQU 291007Z 35004KT 2SM BR OVC004 M09/M10 A3027 RMK ST8 SLP300
Loading
Personal Weather Stations






























Interactive Weather Map New forecast layout! Learn more

10-Day Weather Forecast

Advertisements
Track Severe Weather on mobile